sensor_id;sensor_type;location;lat;lon;timestamp;pressure;altitude;pressure_sealevel;temperature;humidity
44140;BME280;29803;51.048;4.686;2023-02-11T00:00:47;103562.31;;;5.28;100.00
44140;BME280;29803;51.048;4.686;2023-02-11T00:03:17;103566.97;;;5.23;100.00
44140;BME280;29803;51.048;4.686;2023-02-11T00:05:59;103570.59;;;5.20;100.00
44140;BME280;29803;51.048;4.686;2023-02-11T00:08:30;103557.38;;;5.19;100.00
44140;BME280;29803;51.048;4.686;2023-02-11T00:11:00;103560.97;;;5.18;100.00
44140;BME280;29803;51.048;4.686;2023-02-11T00:13:31;103560.31;;;5.13;100.00
44140;BME280;29803;51.048;4.686;2023-02-11T00:16:06;103557.66;;;5.13;100.00
44140;BME280;29803;51.048;4.686;2023-02-11T00:18:37;103546.25;;;5.09;100.00
44140;BME280;29803;51.048;4.686;2023-02-11T00:21:09;103541.72;;;5.11;100.00
44140;BME280;29803;51.048;4.686;2023-02-11T00:23:40;103540.06;;;5.09;100.00
44140;BME280;29803;51.048;4.686;2023-02-11T00:26:14;103530.22;;;5.11;100.00
44140;BME280;29803;51.048;4.686;2023-02-11T00:28:46;103534.75;;;5.09;100.00
44140;BME280;29803;51.048;4.686;2023-02-11T00:31:19;103541.03;;;5.06;100.00
44140;BME280;29803;51.048;4.686;2023-02-11T00:33:50;103534.88;;;5.06;100.00
44140;BME280;29803;51.048;4.686;2023-02-11T00:36:23;103526.16;;;5.02;100.00
44140;BME280;29803;51.048;4.686;2023-02-11T00:38:55;103518.22;;;5.01;100.00
44140;BME280;29803;51.048;4.686;2023-02-11T00:41:26;103521.03;;;4.98;100.00
44140;BME280;29803;51.048;4.686;2023-02-11T00:43:56;103513.09;;;4.96;100.00
44140;BME280;29803;51.048;4.686;2023-02-11T00:46:27;103508.72;;;4.95;100.00
44140;BME280;29803;51.048;4.686;2023-02-11T00:48:57;103507.84;;;4.94;100.00
44140;BME280;29803;51.048;4.686;2023-02-11T00:51:28;103504.25;;;4.96;100.00
44140;BME280;29803;51.048;4.686;2023-02-11T00:53:58;103508.72;;;4.95;100.00
44140;BME280;29803;51.048;4.686;2023-02-11T00:56:29;103494.56;;;4.94;100.00
44140;BME280;29803;51.048;4.686;2023-02-11T00:58:59;103491.81;;;4.96;100.00
44140;BME280;29803;51.048;4.686;2023-02-11T01:01:30;103497.13;;;4.96;100.00
44140;BME280;29803;51.048;4.686;2023-02-11T01:04:00;103498.16;;;4.93;100.00
44140;BME280;29803;51.048;4.686;2023-02-11T01:06:31;103498.22;;;4.92;100.00
44140;BME280;29803;51.048;4.686;2023-02-11T01:09:01;103490.44;;;4.87;100.00
44140;BME280;29803;51.048;4.686;2023-02-11T01:11:32;103487.03;;;4.84;100.00
44140;BME280;29803;51.048;4.686;2023-02-11T01:14:02;103501.38;;;4.80;100.00
44140;BME280;29803;51.048;4.686;2023-02-11T01:16:33;103502.44;;;4.76;100.00
44140;BME280;29803;51.048;4.686;2023-02-11T01:19:03;103501.56;;;4.75;100.00
44140;BME280;29803;51.048;4.686;2023-02-11T01:21:34;103497.94;;;4.78;100.00
44140;BME280;29803;51.048;4.686;2023-02-11T01:24:05;103499.72;;;4.77;100.00
44140;BME280;29803;51.048;4.686;2023-02-11T01:26:35;103503.09;;;4.81;100.00
44140;BME280;29803;51.048;4.686;2023-02-11T01:29:06;103502.06;;;4.85;100.00
44140;BME280;29803;51.048;4.686;2023-02-11T01:31:36;103504.44;;;4.91;100.00
44140;BME280;29803;51.048;4.686;2023-02-11T01:34:07;103515.56;;;5.01;100.00
44140;BME280;29803;51.048;4.686;2023-02-11T01:36:37;103519.84;;;5.05;100.00
44140;BME280;29803;51.048;4.686;2023-02-11T01:39:08;103520.63;;;5.07;100.00
44140;BME280;29803;51.048;4.686;2023-02-11T01:41:38;103524.84;;;5.12;100.00
44140;BME280;29803;51.048;4.686;2023-02-11T01:47:17;103525.44;;;5.19;100.00
44140;BME280;29803;51.048;4.686;2023-02-11T01:49:50;103517.34;;;5.22;100.00
44140;BME280;29803;51.048;4.686;2023-02-11T01:55:10;103534.00;;;5.26;100.00
44140;BME280;29803;51.048;4.686;2023-02-11T01:58:03;103521.44;;;5.29;100.00
44140;BME280;29803;51.048;4.686;2023-02-11T02:00:36;103526.66;;;5.32;100.00
44140;BME280;29803;51.048;4.686;2023-02-11T02:03:13;103521.31;;;5.32;100.00
44140;BME280;29803;51.048;4.686;2023-02-11T02:11:04;103519.31;;;5.37;100.00
44140;BME280;29803;51.048;4.686;2023-02-11T02:13:52;103506.22;;;5.33;100.00
44140;BME280;29803;51.048;4.686;2023-02-11T02:16:29;103494.72;;;5.32;100.00
44140;BME280;29803;51.048;4.686;2023-02-11T02:31:40;103488.09;;;5.41;100.00
44140;BME280;29803;51.048;4.686;2023-02-11T02:37:32;103496.72;;;5.46;100.00
44140;BME280;29803;51.048;4.686;2023-02-11T02:40:09;103491.38;;;5.48;100.00
44140;BME280;29803;51.048;4.686;2023-02-11T02:42:41;103497.47;;;5.50;100.00
44140;BME280;29803;51.048;4.686;2023-02-11T02:45:13;103492.94;;;5.52;100.00
44140;BME280;29803;51.048;4.686;2023-02-11T02:47:44;103489.56;;;5.48;100.00
44140;BME280;29803;51.048;4.686;2023-02-11T02:50:19;103484.25;;;5.48;100.00
44140;BME280;29803;51.048;4.686;2023-02-11T02:56:23;103494.59;;;5.54;100.00
44140;BME280;29803;51.048;4.686;2023-02-11T03:04:59;103503.53;;;5.53;100.00
44140;BME280;29803;51.048;4.686;2023-02-11T03:07:40;103490.91;;;5.57;100.00
44140;BME280;29803;51.048;4.686;2023-02-11T03:10:18;103483.88;;;5.56;100.00
44140;BME280;29803;51.048;4.686;2023-02-11T03:12:51;103476.63;;;5.59;100.00
44140;BME280;29803;51.048;4.686;2023-02-11T03:15:25;103472.28;;;5.57;100.00
44140;BME280;29803;51.048;4.686;2023-02-11T03:17:58;103467.91;;;5.56;100.00
44140;BME280;29803;51.048;4.686;2023-02-11T03:20:32;103482.81;;;5.60;100.00
44140;BME280;29803;51.048;4.686;2023-02-11T03:25:58;103482.81;;;5.60;100.00
44140;BME280;29803;51.048;4.686;2023-02-11T03:29:00;103482.81;;;5.60;100.00
44140;BME280;29803;51.048;4.686;2023-02-11T03:31:43;103486.25;;;5.62;100.00
44140;BME280;29803;51.048;4.686;2023-02-11T03:34:28;103489.94;;;5.59;100.00
44140;BME280;29803;51.048;4.686;2023-02-11T03:37:04;103499.81;;;5.57;100.00
44140;BME280;29803;51.048;4.686;2023-02-11T03:39:45;103492.69;;;5.58;100.00
44140;BME280;29803;51.048;4.686;2023-02-11T03:42:17;103488.06;;;5.61;100.00
44140;BME280;29803;51.048;4.686;2023-02-11T03:44:52;103476.53;;;5.61;100.00
44140;BME280;29803;51.048;4.686;2023-02-11T03:47:28;103485.38;;;5.61;100.00
44140;BME280;29803;51.048;4.686;2023-02-11T03:50:02;103481.94;;;5.59;100.00
44140;BME280;29803;51.048;4.686;2023-02-11T03:52:34;103480.28;;;5.57;100.00
44140;BME280;29803;51.048;4.686;2023-02-11T03:55:11;103478.56;;;5.56;100.00
44140;BME280;29803;51.048;4.686;2023-02-11T03:57:42;103478.56;;;5.56;100.00
44140;BME280;29803;51.048;4.686;2023-02-11T04:00:14;103474.09;;;5.56;100.00
44140;BME280;29803;51.048;4.686;2023-02-11T04:02:44;103479.41;;;5.56;100.00
44140;BME280;29803;51.048;4.686;2023-02-11T04:05:15;103489.00;;;5.60;100.00
44140;BME280;29803;51.048;4.686;2023-02-11T04:07:45;103488.13;;;5.60;100.00
44140;BME280;29803;51.048;4.686;2023-02-11T04:10:16;103491.75;;;5.59;100.00
44140;BME280;29803;51.048;4.686;2023-02-11T04:12:47;103491.56;;;5.62;100.00
44140;BME280;29803;51.048;4.686;2023-02-11T04:15:17;103488.06;;;5.61;100.00
44140;BME280;29803;51.048;4.686;2023-02-11T04:17:48;103479.19;;;5.61;100.00
44140;BME280;29803;51.048;4.686;2023-02-11T04:20:19;103480.22;;;5.58;100.00
44140;BME280;29803;51.048;4.686;2023-02-11T04:22:49;103484.53;;;5.61;100.00
44140;BME280;29803;51.048;4.686;2023-02-11T04:25:20;103491.56;;;5.62;100.00
44140;BME280;29803;51.048;4.686;2023-02-11T04:27:50;103495.84;;;5.66;100.00
44140;BME280;29803;51.048;4.686;2023-02-11T04:30:21;103504.00;;;5.63;100.00
44140;BME280;29803;51.048;4.686;2023-02-11T04:32:51;103504.91;;;5.62;100.00
44140;BME280;29803;51.048;4.686;2023-02-11T04:35:23;103493.19;;;5.66;100.00
44140;BME280;29803;51.048;4.686;2023-02-11T04:37:54;103497.63;;;5.65;100.00
44140;BME280;29803;51.048;4.686;2023-02-11T04:40:24;103489.72;;;5.64;100.00
44140;BME280;29803;51.048;4.686;2023-02-11T04:42:55;103490.38;;;5.69;100.00
44140;BME280;29803;51.048;4.686;2023-02-11T04:45:25;103484.31;;;5.65;100.00
44140;BME280;29803;51.048;4.686;2023-02-11T04:47:56;103481.59;;;5.67;100.00
44140;BME280;29803;51.048;4.686;2023-02-11T04:50:26;103479.72;;;5.69;100.00
44140;BME280;29803;51.048;4.686;2023-02-11T04:52:57;103474.41;;;5.69;100.00
44140;BME280;29803;51.048;4.686;2023-02-11T04:55:27;103472.47;;;5.72;100.00
44140;BME280;29803;51.048;4.686;2023-02-11T04:57:58;103470.72;;;5.71;100.00
44140;BME280;29803;51.048;4.686;2023-02-11T05:00:28;103472.59;;;5.69;100.00
44140;BME280;29803;51.048;4.686;2023-02-11T05:02:59;103475.34;;;5.68;100.00
44140;BME280;29803;51.048;4.686;2023-02-11T05:05:29;103469.19;;;5.66;100.00
44140;BME280;29803;51.048;4.686;2023-02-11T05:08:00;103469.41;;;5.61;100.00
44140;BME280;29803;51.048;4.686;2023-02-11T05:10:30;103459.63;;;5.62;100.00
44140;BME280;29803;51.048;4.686;2023-02-11T05:13:01;103459.38;;;5.68;100.00
44140;BME280;29803;51.048;4.686;2023-02-11T05:15:32;103461.09;;;5.69;100.00
44140;BME280;29803;51.048;4.686;2023-02-11T05:18:03;103460.16;;;5.70;100.00
44140;BME280;29803;51.048;4.686;2023-02-11T05:20:33;103462.94;;;5.67;100.00
44140;BME280;29803;51.048;4.686;2023-02-11T05:23:04;103456.53;;;5.71;100.00
44140;BME280;29803;51.048;4.686;2023-02-11T05:25:34;103462.69;;;5.73;100.00
44140;BME280;29803;51.048;4.686;2023-02-11T05:28:05;103456.41;;;5.74;100.00
44140;BME280;29803;51.048;4.686;2023-02-11T05:30:36;103456.31;;;5.76;100.00
44140;BME280;29803;51.048;4.686;2023-02-11T05:33:06;103448.25;;;5.77;100.00
44140;BME280;29803;51.048;4.686;2023-02-11T05:35:36;103446.31;;;5.81;100.00
44140;BME280;29803;51.048;4.686;2023-02-11T05:38:07;103450.06;;;5.77;100.00
44140;BME280;29803;51.048;4.686;2023-02-11T05:40:37;103463.38;;;5.77;100.00
44140;BME280;29803;51.048;4.686;2023-02-11T05:43:08;103459.16;;;5.72;100.00
44140;BME280;29803;51.048;4.686;2023-02-11T05:45:38;103462.69;;;5.73;100.00
44140;BME280;29803;51.048;4.686;2023-02-11T05:48:09;103466.25;;;5.72;100.00
44140;BME280;29803;51.048;4.686;2023-02-11T05:50:40;103464.53;;;5.71;100.00
44140;BME280;29803;51.048;4.686;2023-02-11T05:53:10;103469.72;;;5.74;100.00
44140;BME280;29803;51.048;4.686;2023-02-11T05:55:41;103468.88;;;5.74;100.00
44140;BME280;29803;51.048;4.686;2023-02-11T05:58:11;103477.84;;;5.71;100.00
44140;BME280;29803;51.048;4.686;2023-02-11T06:00:42;103475.91;;;5.75;100.00
44140;BME280;29803;51.048;4.686;2023-02-11T06:03:13;103477.63;;;5.76;100.00
44140;BME280;29803;51.048;4.686;2023-02-11T06:05:44;103474.03;;;5.77;100.00
44140;BME280;29803;51.048;4.686;2023-02-11T06:08:14;103467.84;;;5.76;100.00
44140;BME280;29803;51.048;4.686;2023-02-11T06:10:45;103465.19;;;5.76;100.00
44140;BME280;29803;51.048;4.686;2023-02-11T06:13:15;103466.00;;;5.78;100.00
44140;BME280;29803;51.048;4.686;2023-02-11T06:16:05;103467.78;;;5.78;100.00
44140;BME280;29803;51.048;4.686;2023-02-11T06:18:36;103456.13;;;5.80;100.00
44140;BME280;29803;51.048;4.686;2023-02-11T06:21:08;103461.56;;;5.77;100.00
44140;BME280;29803;51.048;4.686;2023-02-11T06:23:39;103462.47;;;5.78;100.00
44140;BME280;29803;51.048;4.686;2023-02-11T06:26:16;103463.38;;;5.77;100.00
44140;BME280;29803;51.048;4.686;2023-02-11T06:28:47;103464.25;;;5.77;100.00
44140;BME280;29803;51.048;4.686;2023-02-11T06:31:17;103466.00;;;5.78;100.00
44140;BME280;29803;51.048;4.686;2023-02-11T06:33:48;103454.53;;;5.76;100.00
44140;BME280;29803;51.048;4.686;2023-02-11T06:36:21;103463.25;;;5.80;100.00
44140;BME280;29803;51.048;4.686;2023-02-11T06:38:51;103458.00;;;5.78;100.00
44140;BME280;29803;51.048;4.686;2023-02-11T06:41:22;103467.63;;;5.81;100.00
44140;BME280;29803;51.048;4.686;2023-02-11T06:43:53;103468.38;;;5.84;100.00
44140;BME280;29803;51.048;4.686;2023-02-11T06:46:23;103471.16;;;5.81;100.00
44140;BME280;29803;51.048;4.686;2023-02-11T06:48:54;103460.59;;;5.80;100.00
44140;BME280;29803;51.048;4.686;2023-02-11T06:51:24;103460.50;;;5.81;100.00
44140;BME280;29803;51.048;4.686;2023-02-11T06:53:55;103454.31;;;5.81;100.00
44140;BME280;29803;51.048;4.686;2023-02-11T06:56:25;103457.13;;;5.78;100.00
44140;BME280;29803;51.048;4.686;2023-02-11T06:58:56;103464.09;;;5.80;100.00
44140;BME280;29803;51.048;4.686;2023-02-11T07:01:27;103469.34;;;5.82;100.00
44140;BME280;29803;51.048;4.686;2023-02-11T07:03:58;103463.13;;;5.83;100.00
44140;BME280;29803;51.048;4.686;2023-02-11T07:06:28;103458.50;;;5.86;100.00
44140;BME280;29803;51.048;4.686;2023-02-11T07:08:59;103461.97;;;5.88;100.00
44140;BME280;29803;51.048;4.686;2023-02-11T07:11:30;103457.63;;;5.86;100.00
44140;BME280;29803;51.048;4.686;2023-02-11T07:14:04;103466.44;;;5.88;100.00
44140;BME280;29803;51.048;4.686;2023-02-11T07:16:35;103473.56;;;5.87;100.00
44140;BME280;29803;51.048;4.686;2023-02-11T07:19:07;103470.91;;;5.87;100.00
44140;BME280;29803;51.048;4.686;2023-02-11T07:21:37;103475.34;;;5.87;100.00
44140;BME280;29803;51.048;4.686;2023-02-11T07:24:08;103477.13;;;5.86;100.00
44140;BME280;29803;51.048;4.686;2023-02-11T07:26:39;103484.13;;;5.89;100.00
44140;BME280;29803;51.048;4.686;2023-02-11T07:29:09;103494.72;;;5.90;100.00
44140;BME280;29803;51.048;4.686;2023-02-11T07:31:40;103492.06;;;5.90;100.00
44140;BME280;29803;51.048;4.686;2023-02-11T07:34:10;103503.56;;;5.92;100.00
44140;BME280;29803;51.048;4.686;2023-02-11T07:36:41;103514.88;;;5.97;100.00
44140;BME280;29803;51.048;4.686;2023-02-11T07:39:13;103516.50;;;6.00;100.00
44140;BME280;29803;51.048;4.686;2023-02-11T07:41:43;103522.56;;;6.04;100.00
44140;BME280;29803;51.048;4.686;2023-02-11T07:44:17;103526.94;;;6.05;100.00
44140;BME280;29803;51.048;4.686;2023-02-11T07:46:47;103526.66;;;6.11;100.00
44140;BME280;29803;51.048;4.686;2023-02-11T07:49:18;103529.19;;;6.14;100.00
44140;BME280;29803;51.048;4.686;2023-02-11T07:51:48;103524.44;;;6.20;100.00
44140;BME280;29803;51.048;4.686;2023-02-11T07:54:20;103523.47;;;6.21;100.00
44140;BME280;29803;51.048;4.686;2023-02-11T07:56:51;103523.47;;;6.21;100.00
44140;BME280;29803;51.048;4.686;2023-02-11T07:59:22;103525.28;;;6.21;100.00
44140;BME280;29803;51.048;4.686;2023-02-11T08:01:54;103527.00;;;6.22;100.00
44140;BME280;29803;51.048;4.686;2023-02-11T08:04:24;103525.16;;;6.24;100.00
44140;BME280;29803;51.048;4.686;2023-02-11T08:06:55;103527.66;;;6.27;100.00
44140;BME280;29803;51.048;4.686;2023-02-11T08:09:26;103530.97;;;6.32;100.00
44140;BME280;29803;51.048;4.686;2023-02-11T08:11:57;103531.69;;;6.36;100.00
44140;BME280;29803;51.048;4.686;2023-02-11T08:14:27;103536.94;;;6.37;100.00
44140;BME280;29803;51.048;4.686;2023-02-11T08:16:58;103536.59;;;6.45;100.00
44140;BME280;29803;51.048;4.686;2023-02-11T08:19:28;103535.44;;;6.51;100.00
44140;BME280;29803;51.048;4.686;2023-02-11T08:21:59;103535.50;;;6.49;100.00
44140;BME280;29803;51.048;4.686;2023-02-11T08:24:30;103542.69;;;6.47;100.00
44140;BME280;29803;51.048;4.686;2023-02-11T08:27:01;103548.84;;;6.49;100.00
44140;BME280;29803;51.048;4.686;2023-02-11T08:29:31;103552.16;;;6.54;100.00
44140;BME280;29803;51.048;4.686;2023-02-11T08:32:02;103554.66;;;6.57;100.00
44140;BME280;29803;51.048;4.686;2023-02-11T08:34:32;103544.63;;;6.62;100.00
44140;BME280;29803;51.048;4.686;2023-02-11T08:37:03;103543.72;;;6.63;100.00
44140;BME280;29803;51.048;4.686;2023-02-11T08:39:33;103550.59;;;6.67;100.00
44140;BME280;29803;51.048;4.686;2023-02-11T08:42:04;103553.28;;;6.67;100.00
44140;BME280;29803;51.048;4.686;2023-02-11T08:44:34;103561.00;;;6.73;100.00
44140;BME280;29803;51.048;4.686;2023-02-11T08:47:05;103559.25;;;6.72;100.00
44140;BME280;29803;51.048;4.686;2023-02-11T08:49:35;103567.09;;;6.75;100.00
44140;BME280;29803;51.048;4.686;2023-02-11T08:52:07;103573.31;;;6.76;100.00
44140;BME280;29803;51.048;4.686;2023-02-11T08:54:38;103570.56;;;6.78;100.00
44140;BME280;29803;51.048;4.686;2023-02-11T08:57:08;103571.28;;;6.81;100.00
44140;BME280;29803;51.048;4.686;2023-02-11T08:59:39;103576.63;;;6.81;100.00
44140;BME280;29803;51.048;4.686;2023-02-11T09:02:11;103572.22;;;6.80;100.00
44140;BME280;29803;51.048;4.686;2023-02-11T09:04:42;103576.53;;;6.83;100.00
44140;BME280;29803;51.048;4.686;2023-02-11T09:07:12;103579.19;;;6.83;100.00
44140;BME280;29803;51.048;4.686;2023-02-11T09:09:43;103581.94;;;6.81;100.00
44140;BME280;29803;51.048;4.686;2023-02-11T09:12:13;103577.47;;;6.82;100.00
44140;BME280;29803;51.048;4.686;2023-02-11T09:14:44;103584.53;;;6.83;100.00
44140;BME280;29803;51.048;4.686;2023-02-11T09:17:14;103578.28;;;6.84;100.00
44140;BME280;29803;51.048;4.686;2023-02-11T09:19:45;103584.09;;;6.92;100.00
44140;BME280;29803;51.048;4.686;2023-02-11T09:22:15;103575.72;;;6.99;100.00
44140;BME280;29803;51.048;4.686;2023-02-11T09:24:46;103580.97;;;7.01;100.00
44140;BME280;29803;51.048;4.686;2023-02-11T09:27:16;103579.75;;;7.08;100.00
44140;BME280;29803;51.048;4.686;2023-02-11T09:29:47;103578.78;;;7.09;100.00
44140;BME280;29803;51.048;4.686;2023-02-11T09:32:17;103585.13;;;7.07;100.00
44140;BME280;29803;51.048;4.686;2023-02-11T09:34:48;103583.41;;;7.06;100.00
44140;BME280;29803;51.048;4.686;2023-02-11T09:37:18;103587.75;;;7.08;100.00
44140;BME280;29803;51.048;4.686;2023-02-11T09:39:49;103584.28;;;7.06;100.00
44140;BME280;29803;51.048;4.686;2023-02-11T09:42:39;103584.13;;;7.09;100.00
44140;BME280;29803;51.048;4.686;2023-02-11T09:45:17;103580.28;;;7.15;100.00
44140;BME280;29803;51.048;4.686;2023-02-11T09:48:10;103586.25;;;7.20;100.00
44140;BME280;29803;51.048;4.686;2023-02-11T09:50:48;103585.22;;;7.22;100.00
44140;BME280;29803;51.048;4.686;2023-02-11T09:53:36;103579.66;;;7.27;100.00
44140;BME280;29803;51.048;4.686;2023-02-11T09:56:12;103576.13;;;7.26;100.00
44140;BME280;29803;51.048;4.686;2023-02-11T09:58:44;103581.09;;;7.34;100.00
44140;BME280;29803;51.048;4.686;2023-02-11T10:01:26;103593.47;;;7.35;100.00
44140;BME280;29803;51.048;4.686;2023-02-11T10:04:19;103593.34;;;7.38;100.00
44140;BME280;29803;51.048;4.686;2023-02-11T10:07:02;103587.81;;;7.41;100.00
44140;BME280;29803;51.048;4.686;2023-02-11T10:12:37;103590.81;;;7.35;100.00
44140;BME280;29803;51.048;4.686;2023-02-11T10:23:21;103610.44;;;7.51;100.00
44140;BME280;29803;51.048;4.686;2023-02-11T10:25:55;103605.28;;;7.48;100.00
44140;BME280;29803;51.048;4.686;2023-02-11T10:28:45;103613.97;;;7.52;100.00
44140;BME280;29803;51.048;4.686;2023-02-11T10:31:35;103611.41;;;7.50;100.00
44140;BME280;29803;51.048;4.686;2023-02-11T10:34:09;103625.53;;;7.52;100.00
44140;BME280;29803;51.048;4.686;2023-02-11T10:36:42;103614.59;;;7.57;100.00
44140;BME280;29803;51.048;4.686;2023-02-11T10:39:16;103613.28;;;7.66;100.00
44140;BME280;29803;51.048;4.686;2023-02-11T10:42:04;103617.75;;;7.65;100.00
44140;BME280;29803;51.048;4.686;2023-02-11T10:44:38;103618.63;;;7.66;100.00
44140;BME280;29803;51.048;4.686;2023-02-11T10:47:14;103625.00;;;7.63;100.00
44140;BME280;29803;51.048;4.686;2023-02-11T10:49:48;103629.44;;;7.63;100.00
44140;BME280;29803;51.048;4.686;2023-02-11T10:52:37;103621.44;;;7.63;100.00
44140;BME280;29803;51.048;4.686;2023-02-11T10:58:01;103619.09;;;7.57;100.00
44140;BME280;29803;51.048;4.686;2023-02-11T11:00:35;103621.75;;;7.57;100.00
44140;BME280;29803;51.048;4.686;2023-02-11T11:03:19;103628.06;;;7.56;100.00
44140;BME280;29803;51.048;4.686;2023-02-11T11:08:44;103626.16;;;7.58;100.00
44140;BME280;29803;51.048;4.686;2023-02-11T11:11:18;103623.47;;;7.58;100.00
44140;BME280;29803;51.048;4.686;2023-02-11T11:14:12;103626.00;;;7.61;100.00
44140;BME280;29803;51.048;4.686;2023-02-11T11:17:11;103624.38;;;7.58;100.00
44140;BME280;29803;51.048;4.686;2023-02-11T11:19:47;103634.03;;;7.61;100.00
44140;BME280;29803;51.048;4.686;2023-02-11T11:22:20;103626.00;;;7.61;100.00
44140;BME280;29803;51.048;4.686;2023-02-11T11:24:51;103632.22;;;7.61;100.00
44140;BME280;29803;51.048;4.686;2023-02-11T11:27:24;103616.91;;;7.65;100.00
44140;BME280;29803;51.048;4.686;2023-02-11T11:29:55;103618.47;;;7.69;100.00
44140;BME280;29803;51.048;4.686;2023-02-11T11:32:29;103617.28;;;7.74;100.00
44140;BME280;29803;51.048;4.686;2023-02-11T11:35:06;103616.25;;;7.77;100.00
44140;BME280;29803;51.048;4.686;2023-02-11T11:37:39;103611.59;;;7.81;100.00
44140;BME280;29803;51.048;4.686;2023-02-11T11:42:43;103613.00;;;7.88;100.00
44140;BME280;29803;51.048;4.686;2023-02-11T11:50:53;103616.84;;;7.99;100.00
44140;BME280;29803;51.048;4.686;2023-02-11T11:53:44;103619.94;;;8.08;100.00
44140;BME280;29803;51.048;4.686;2023-02-11T11:56:36;103614.31;;;8.14;100.00
44140;BME280;29803;51.048;4.686;2023-02-11T11:59:13;103617.59;;;8.19;100.00
44140;BME280;29803;51.048;4.686;2023-02-11T12:07:56;103619.06;;;8.24;100.00
44140;BME280;29803;51.048;4.686;2023-02-11T12:17:10;103640.22;;;8.29;100.00
44140;BME280;29803;51.048;4.686;2023-02-11T12:26:12;103634.47;;;8.37;100.00
44140;BME280;29803;51.048;4.686;2023-02-11T12:37:57;103623.88;;;8.51;100.00
44140;BME280;29803;51.048;4.686;2023-02-11T12:43:52;103624.13;;;8.62;100.00
44140;BME280;29803;51.048;4.686;2023-02-11T12:52:22;103633.47;;;8.71;100.00
44140;BME280;29803;51.048;4.686;2023-02-11T12:55:01;103620.78;;;8.74;100.00
44140;BME280;29803;51.048;4.686;2023-02-11T12:57:35;103627.00;;;8.75;100.00
44140;BME280;29803;51.048;4.686;2023-02-11T13:00:21;103621.03;;;8.70;100.00
44140;BME280;29803;51.048;4.686;2023-02-11T13:05:41;103622.91;;;8.68;100.00
44140;BME280;29803;51.048;4.686;2023-02-11T13:08:32;103613.00;;;8.70;100.00
44140;BME280;29803;51.048;4.686;2023-02-11T13:11:24;103619.97;;;8.56;100.00
44140;BME280;29803;51.048;4.686;2023-02-11T13:14:02;103606.94;;;8.50;100.00
44140;BME280;29803;51.048;4.686;2023-02-11T13:16:38;103605.84;;;8.54;100.00
44140;BME280;29803;51.048;4.686;2023-02-11T13:22:15;103602.72;;;8.46;100.00
44140;BME280;29803;51.048;4.686;2023-02-11T13:30:30;103600.75;;;8.50;100.00
44140;BME280;29803;51.048;4.686;2023-02-11T13:33:15;103596.16;;;8.52;100.00
44140;BME280;29803;51.048;4.686;2023-02-11T13:38:39;103585.53;;;8.50;100.00
44140;BME280;29803;51.048;4.686;2023-02-11T13:41:29;103589.25;;;8.48;100.00
44140;BME280;29803;51.048;4.686;2023-02-11T13:44:12;103592.09;;;8.45;100.00
44140;BME280;29803;51.048;4.686;2023-02-11T13:47:11;103596.50;;;8.46;100.00
44140;BME280;29803;51.048;4.686;2023-02-11T13:49:52;103592.00;;;8.46;100.00
44140;BME280;29803;51.048;4.686;2023-02-11T13:52:27;103595.66;;;8.45;100.00
44140;BME280;29803;51.048;4.686;2023-02-11T13:55:06;103587.28;;;8.51;100.00
44140;BME280;29803;51.048;4.686;2023-02-11T13:57:43;103592.63;;;8.51;100.00
44140;BME280;29803;51.048;4.686;2023-02-11T14:03:24;103584.16;;;8.43;100.00
44140;BME280;29803;51.048;4.686;2023-02-11T14:09:38;103593.81;;;8.46;100.00
44140;BME280;29803;51.048;4.686;2023-02-11T14:12:25;103597.63;;;8.42;100.00
44140;BME280;29803;51.048;4.686;2023-02-11T14:15:16;103588.56;;;8.44;100.00
44140;BME280;29803;51.048;4.686;2023-02-11T14:17:48;103591.25;;;8.44;100.00
44140;BME280;29803;51.048;4.686;2023-02-11T14:20:34;103591.16;;;8.46;100.00
44140;BME280;29803;51.048;4.686;2023-02-11T14:23:05;103593.81;;;8.46;100.00
44140;BME280;29803;51.048;4.686;2023-02-11T14:25:38;103593.06;;;8.44;100.00
44140;BME280;29803;51.048;4.686;2023-02-11T14:28:21;103590.38;;;8.44;100.00
44140;BME280;29803;51.048;4.686;2023-02-11T14:31:02;103596.75;;;8.41;100.00
44140;BME280;29803;51.048;4.686;2023-02-11T14:33:43;103597.63;;;8.42;100.00
44140;BME280;29803;51.048;4.686;2023-02-11T14:36:34;103597.53;;;8.43;100.00
44140;BME280;29803;51.048;4.686;2023-02-11T14:42:27;103590.44;;;8.42;100.00
44140;BME280;29803;51.048;4.686;2023-02-11T14:45:21;103600.13;;;8.45;100.00
44140;BME280;29803;51.048;4.686;2023-02-11T14:51:07;103599.28;;;8.44;100.00
44140;BME280;29803;51.048;4.686;2023-02-11T14:53:46;103590.38;;;8.44;100.00
44140;BME280;29803;51.048;4.686;2023-02-11T14:56:24;103594.09;;;8.41;100.00
44140;BME280;29803;51.048;4.686;2023-02-11T14:58:59;103596.75;;;8.41;100.00
44140;BME280;29803;51.048;4.686;2023-02-11T15:01:35;103587.78;;;8.42;100.00
44140;BME280;29803;51.048;4.686;2023-02-11T15:04:25;103598.66;;;8.39;100.00
44140;BME280;29803;51.048;4.686;2023-02-11T15:07:06;103594.34;;;8.37;100.00
44140;BME280;29803;51.048;4.686;2023-02-11T15:10:01;103602.41;;;8.35;100.00
44140;BME280;29803;51.048;4.686;2023-02-11T15:12:39;103609.59;;;8.35;100.00
44140;BME280;29803;51.048;4.686;2023-02-11T15:15:15;103610.53;;;8.34;100.00
44140;BME280;29803;51.048;4.686;2023-02-11T15:17:47;103609.84;;;8.30;100.00
44140;BME280;29803;51.048;4.686;2023-02-11T15:20:23;103607.16;;;8.30;100.00
44140;BME280;29803;51.048;4.686;2023-02-11T15:22:58;103610.69;;;8.30;100.00
44140;BME280;29803;51.048;4.686;2023-02-11T15:25:30;103608.13;;;8.29;100.00
44140;BME280;29803;51.048;4.686;2023-02-11T15:28:14;103606.38;;;8.28;100.00
44140;BME280;29803;51.048;4.686;2023-02-11T15:34:06;103610.84;;;8.27;100.00
44140;BME280;29803;51.048;4.686;2023-02-11T15:36:37;103612.75;;;8.25;100.00
44140;BME280;29803;51.048;4.686;2023-02-11T15:39:29;103621.75;;;8.24;100.00